Latest METARs, TAFs and NOTAMs for SABE


---------------------------------------------------------------------------
	(OBSERVATIONS)
SABE 300100Z 32006KT CAVOK 18/13 Q1021=
SABE 300000Z 33005KT CAVOK 19/14 Q1020=
SABE 292300Z 33004KT CAVOK 19/14 Q1020=
---------------------------------------------------------------------------
	(TERMINAL AREA FORECAST)
SABE 292300Z 3000/3024 33010KT CAVOK TX24/3018Z TN15/3009Z
    BECMG 3017/3020 02005KT=
---------------------------------------------------------------------------
	(NOTAMS)


SABE A1100/17 ON COMMERCIAL APN, PSN N 4, 5, 6, 8, 18 AND 29,
    ALSO ALLOW ACFT A-321. PSN 23 AND 25 ALSO ALLOW ACFT ATR-72
    CHANGES AIP VOL. III AIRCRAFT PARKING AND BERTHING DIAGRAM
    ON COMMERCIAL APRON IN TAXI STANDARDS, MOVEMENT AND PARKING
    IN AMDT AIRAC 2/16. 23 FEB 17:33 2017 UNTIL PERM. CREATED:
    23 FEB 17:37 2017

SABE A1700/17 AS OF MARCH-01-2010 BUENOS AIRES/AEROPARQUE J.
    NEWBERY AERODROME BECOMES PERMANENTLY INTERNATIONAL FOR FLIGHTS
    BELONGING TO AEROLINEAS ARGENTINAS COMPANY COMING FROM OR
    WITH FINAL DESTINATION TO THE FEDERATIVE REPUBLIC BRAZIL,
    REPUBLIC OF PARAGUAY AND REPUBLIC OF CHILE, IN ACCORDANCE
    WTIH ANAC RESOLUTION 264 FROM JAN-21-2010. 25 MAR 12:14 2017
    UNTIL PERM. CREATED: 25 MAR 12:18 2017

SABE A1701/17 AD TIME EXTENSION FOR POTENCIAL TEST MAXIMUM MOTORS
    NOT SUPERIOR TO 60 PERCENT AND 70 DB OF 0900-1100 AND 0100-0200.
    25 MAR 12:19 2017 UNTIL PERM. CREATED: 25 MAR 12:22 2017

SABE A1866/17 NDB LI P 280 RWY 13 U/S. 02 APR 00:00 2017 UNTIL
    30 APR 23:59 2017. CREATED: 03 APR 11:02 2017

SABE A1883/17 OBST ERECTED FROM HGT 60MTS COORD GEO 34332849S/058243972W.
    01 APR 03:00 2017 UNTIL 01 JUN 03:00 2017. CREATED: 31 MAR
    17:09 2017

SABE A1943/17 NDB LO OP 260.0 KHZ RWY 13 U/S. 03 APR 14:25 2017
    UNTIL 30 APR 23:59 2017. CREATED: 03 APR 14:33 2017

SABE A2374/17 RWY 13/31 CLSD WIP MAINT. 04,09,11,16,18,23 AND
    30 0430-0730, 04 MAY 04:30 2017 UNTIL 30 MAY 07:30 2017.
    CREATED: 18 APR 14:30 2017

SABE A2459/15 IN ORDER TO ENHACE THE AIRSPACE USE RADAR ASSISTANCE
    IS PROVIDED FOR INSTRUMENT APROACHES INSIDE AEROPARQUE CTR
    TO KEEP IN SEQUENCE APPROACH TRAFFIC UNDER SURVEILLANCE THIS
    RADAR ASSITANCE DOES NOT MEAN RADDAR APPROACH CONROL SERVICE.
    14 MAY 17:50 2015 UNTIL PERM. CREATED: 14 MAY 17:56 2015

SABE A2487/15 BY MEANS OF RESOLUTION NUMBER 1005/2013 FROM NOVEMBER
    5TH 2013 TANGO JET S.A (REGISTRATION MARKS: LV-AIW AND N70FL)
    AND MACAIR JET S.A AIR COMPANIES(REGISTRATION MARKS: LV-ZRL,
    LV-ZST, LV-ZPZ, LV-ZPW, LV-ZOW, LV-OEL AND LV-BPO) SHALL
    BE ABLE TO OPERATE FROM AND TO AEROPARQUE JORGE NEWBERY IN
    THE PERIOD OF TIME BETWEEN 0400 TO 0700 UTC OR, IN THE CASE
    OF, NOT HAVING THE CONFIGUTARION OF THAT AIR BASE OPERATIVE
    CAPACITY LIMIT. DLY 0400-0700, 15 MAY 03:59 2015 UNTIL PERM.
    CREATED: 15 MAY 04:03 2015

SABE A5968/16 IN AIP VOL II AD PART PAGE SABE AD 2.5 DATED ON
    OCTOBER 13TH 2016 AD 2.19 NAVIGATIONAL AND LANDING RADIO
    AIDS NDB/LI N AND NDB/LI P REVERSE COORDINATES INFORMATION
    FOR EACH ONE THE PUBLISHED INSTALLATIONS. 14 OCT 00:32 2016
    UNTIL PERM. CREATED: 14 OCT 00:39 2016

---------------------------------------------------------------------------